Tenjinmaru No11 — JD3353 — position and weather

sailwx.info

Track history (hours):
 
Tides and Currents Weather Stations Pressure Air Temp Water Temp Dewpoint Dewpoint Depression Visibility Wind Speed Wind Dir Waves Ship Positions

Tenjinmaru No11

Last reported at 2016-Jul-01 10:15 UTC. Time now 2016-Jul-01 11:45 UTC.
Position N 34°10' E 135°04'.

Length 75 m; draft 4.8 m.

Type: Cargo ship. MMSI: 431003485.

Date/timePositionNaut miles runAvg speedWind from/ knotsBaromVisibWave heightAir tempDewpointWater temp
2016-Jul-01 10:15N 34°10' E 135°04'5 7.4
2016-Jul-01 09:33N 34°15' E 135°07'0 0.0
2016-Jul-01 08:33N 34°15' E 135°07'0 0.0
2016-Jul-01 07:32N 34°15' E 135°07'0 0.0
2016-Jul-01 06:32N 34°15' E 135°07'0 0.0
2016-Jul-01 05:32N 34°15' E 135°07'0 0.0
2016-Jul-01 04:29N 34°15' E 135°07'0 0.0
2016-Jul-01 03:32N 34°15' E 135°07'0 0.0
2016-Jul-01 02:32N 34°15' E 135°07'1 0.7
2016-Jul-01 01:33N 34°15' E 135°06'2 2.2
2016-Jul-01 00:34N 34°14' E 135°04'  
2016-Jun-26 18:32N 34°37' E 135°02'2310.7
2016-Jun-26 16:23N 34°14' E 134°60'  
2016-Jun-21 22:30N 35°08' E 139°43'1010.3
2016-Jun-21 21:33N 35°18' E 139°44'5 4.8
2016-Jun-21 20:33N 35°22' E 139°40'0 0.1
2016-Jun-21 19:33N 35°22' E 139°40'0 0.0
2016-Jun-21 18:33N 35°22' E 139°40'0 0.0
2016-Jun-21 17:33N 35°22' E 139°40'0 0.0
2016-Jun-21 16:33N 35°22' E 139°40'0 0.0
2016-Jun-21 15:33N 35°22' E 139°40'0 0.0
2016-Jun-21 14:33N 35°22' E 139°40'0 0.0
2016-Jun-21 13:33N 35°22' E 139°40'0 0.0
2016-Jun-21 12:33N 35°22' E 139°40'0 0.0
2016-Jun-21 11:33N 35°22' E 139°40'0 0.0
2016-Jun-21 10:33N 35°22' E 139°40'  
Track history (hours):
 
Tides and Currents Weather Stations Pressure Air Temp Water Temp Dewpoint Dewpoint Depression Visibility Wind Speed Wind Dir Waves Ship Positions

Tenjinmaru No11

Last reported at 2016-Jul-01 10:15 UTC. Time now 2016-Jul-01 11:45 UTC.
Position N 34°10' E 135°04'.

Length 75 m; draft 4.8 m.

Type: Cargo ship. MMSI: 431003485.

Date/timePositionNaut miles runAvg speedWind from/ knotsBaromVisibWave heightAir tempDewpointWater temp
2016-Jul-01 10:15N 34°10' E 135°04'5 7.4
2016-Jul-01 09:33N 34°15' E 135°07'0 0.0
2016-Jul-01 08:33N 34°15' E 135°07'0 0.0
2016-Jul-01 07:32N 34°15' E 135°07'0 0.0
2016-Jul-01 06:32N 34°15' E 135°07'0 0.0
2016-Jul-01 05:32N 34°15' E 135°07'0 0.0
2016-Jul-01 04:29N 34°15' E 135°07'0 0.0
2016-Jul-01 03:32N 34°15' E 135°07'0 0.0
2016-Jul-01 02:32N 34°15' E 135°07'1 0.7
2016-Jul-01 01:33N 34°15' E 135°06'2 2.2
2016-Jul-01 00:34N 34°14' E 135°04'  
2016-Jun-26 18:32N 34°37' E 135°02'2310.7
2016-Jun-26 16:23N 34°14' E 134°60'  
2016-Jun-21 22:30N 35°08' E 139°43'1010.3
2016-Jun-21 21:33N 35°18' E 139°44'5 4.8
2016-Jun-21 20:33N 35°22' E 139°40'0 0.1
2016-Jun-21 19:33N 35°22' E 139°40'0 0.0
2016-Jun-21 18:33N 35°22' E 139°40'0 0.0
2016-Jun-21 17:33N 35°22' E 139°40'0 0.0
2016-Jun-21 16:33N 35°22' E 139°40'0 0.0
2016-Jun-21 15:33N 35°22' E 139°40'0 0.0
2016-Jun-21 14:33N 35°22' E 139°40'0 0.0
2016-Jun-21 13:33N 35°22' E 139°40'0 0.0
2016-Jun-21 12:33N 35°22' E 139°40'0 0.0
2016-Jun-21 11:33N 35°22' E 139°40'0 0.0
2016-Jun-21 10:33N 35°22' E 139°40'  

Dump ship's entire track history